createdAt,value
2022-11-26T00:10:21.295Z,93.7
2022-11-26T00:22:21.191Z,94.2
2022-11-26T00:34:21.310Z,93.8
2022-11-26T00:46:21.361Z,94.5
2022-11-26T00:58:21.292Z,94.3
2022-11-26T01:10:21.338Z,94.5
2022-11-26T01:22:21.324Z,94.6
2022-11-26T01:34:21.193Z,95.0
2022-11-26T01:46:21.243Z,95.4
2022-11-26T01:58:21.305Z,95.7
2022-11-26T02:10:21.310Z,95.6
2022-11-26T02:22:21.194Z,95.7
2022-11-26T02:34:21.196Z,96.0
2022-11-26T02:46:21.240Z,96.2
2022-11-26T02:58:21.283Z,96.4
2022-11-26T03:10:21.303Z,96.6
2022-11-26T03:22:21.247Z,96.6
2022-11-26T03:34:21.212Z,96.7
2022-11-26T03:46:21.264Z,96.6
2022-11-26T03:58:21.244Z,96.6
2022-11-26T04:10:21.237Z,96.8
2022-11-26T04:22:21.301Z,96.8
2022-11-26T04:34:21.198Z,96.7
2022-11-26T04:46:21.361Z,96.7
2022-11-26T04:58:21.196Z,96.7
2022-11-26T05:10:21.305Z,96.7
2022-11-26T05:22:21.193Z,96.7
2022-11-26T05:34:21.262Z,96.7
2022-11-26T05:46:21.230Z,96.6
2022-11-26T05:58:21.196Z,96.6
2022-11-26T06:10:21.294Z,96.6
2022-11-26T06:22:21.263Z,96.6
2022-11-26T06:34:21.262Z,96.6
2022-11-26T06:46:21.363Z,96.6
2022-11-26T06:58:21.191Z,96.7
2022-11-26T07:10:21.286Z,96.7
2022-11-26T07:22:21.242Z,96.7
2022-11-26T07:34:21.311Z,96.7
2022-11-26T07:46:21.217Z,96.7
2022-11-26T07:58:21.188Z,96.7
2022-11-26T08:10:21.191Z,96.7
2022-11-26T08:22:21.193Z,96.8
2022-11-26T08:34:21.307Z,96.8
2022-11-26T08:46:21.225Z,96.8
2022-11-26T08:58:21.282Z,96.8
2022-11-26T09:10:21.190Z,96.8
2022-11-26T09:22:21.202Z,96.9
2022-11-26T09:34:21.201Z,96.9
2022-11-26T09:46:21.312Z,97.0
2022-11-26T09:58:26.654Z,97.0
2022-11-26T10:10:21.264Z,97.0
2022-11-26T10:22:21.280Z,95.3
2022-11-26T10:34:21.312Z,94.1
2022-11-26T10:46:21.355Z,92.5
2022-11-26T10:58:21.240Z,92.1
2022-11-26T11:10:21.194Z,92.1
2022-11-26T11:22:21.190Z,89.4
2022-11-26T11:34:21.245Z,88.3
2022-11-26T11:46:21.274Z,87.2
2022-11-26T11:58:21.192Z,87.7
2022-11-26T12:10:21.196Z,87.2
2022-11-26T12:22:21.306Z,87.2
2022-11-26T12:34:21.299Z,86.4
2022-11-26T12:46:21.328Z,85.4
2022-11-26T12:58:21.307Z,86.0
2022-11-26T13:10:21.300Z,85.6
2022-11-26T13:22:21.296Z,84.7
2022-11-26T13:34:21.298Z,84.7
2022-11-26T13:46:22.497Z,84.8
2022-11-26T13:58:21.313Z,84.7
2022-11-26T14:10:21.197Z,84.5
2022-11-26T14:22:21.214Z,85.3
2022-11-26T14:34:21.204Z,85.3
2022-11-26T14:46:21.465Z,86.5
2022-11-26T14:58:21.253Z,87.0
2022-11-26T15:10:21.205Z,88.1
2022-11-26T15:22:21.306Z,88.8
2022-11-26T15:34:21.309Z,89.8
2022-11-26T15:46:21.362Z,90.8
2022-11-26T15:58:21.309Z,91.5
2022-11-26T16:10:21.314Z,92.6
2022-11-26T16:22:25.525Z,92.5
2022-11-26T16:34:21.279Z,93.3
2022-11-26T16:46:21.289Z,94.0
2022-11-26T16:58:21.191Z,93.6
2022-11-26T17:10:21.239Z,92.7
2022-11-26T17:22:21.223Z,91.9
2022-11-26T17:34:21.295Z,91.1
2022-11-26T17:46:21.311Z,91.1
2022-11-26T17:58:21.253Z,91.2
2022-11-26T18:10:21.190Z,90.6
2022-11-26T18:22:21.313Z,90.5
2022-11-26T18:34:21.298Z,90.4
2022-11-26T18:46:21.253Z,90.6
2022-11-26T18:58:21.196Z,90.8
2022-11-26T19:10:21.192Z,91.0
2022-11-26T19:22:21.195Z,90.4
2022-11-26T19:34:21.228Z,89.3
2022-11-26T19:46:21.374Z,89.3
2022-11-26T19:58:21.310Z,89.0
2022-11-26T20:10:21.190Z,88.6
2022-11-26T20:22:21.199Z,89.0
2022-11-26T20:34:21.202Z,88.7
2022-11-26T20:46:21.384Z,89.3
2022-11-26T20:58:21.196Z,88.5
2022-11-26T21:10:21.190Z,88.6
2022-11-26T21:22:21.310Z,87.7
2022-11-26T21:34:21.209Z,87.5
2022-11-26T21:46:21.360Z,87.9
2022-11-26T21:58:21.267Z,87.4
2022-11-26T22:10:21.315Z,87.0
2022-11-26T22:22:21.205Z,88.4
2022-11-26T22:34:21.306Z,88.6
2022-11-26T22:46:21.295Z,88.3
2022-11-26T22:58:21.309Z,88.6
2022-11-26T23:10:21.323Z,88.1
2022-11-26T23:22:21.253Z,88.6
2022-11-26T23:34:21.276Z,88.8
2022-11-26T23:46:21.349Z,89.3
2022-11-26T23:58:21.196Z,89.5
